20:46
Airports
History
Links
Donate
Help keep this website running!
PayPal
Bitcoin
This page is community maintained. The information is intended for PC simulator navigation or reference.
Always use approved charts for navigation.
VIAR
AMRITSAR
AMRITSAR (VIAR)
Raja Sansi, Punjab, India (143101)
(C)
Lat/Lng:31° 42' 34.53" N / 74° 47' 50.15" E
31.709593 / 74.797263
Elevation:756'ft / 230mMSL
ID / ICAO:VIAR
Runways:1
Longest:16-34
Asphalt 3,299m / 10,824ft
Controlled:Yes
METAR20:30 GMT 2017-09-19
Altimeter: 29.65
Visibility: 2.5 statute miles
Wind: 0 knots (from 000°)
Temp: 25°c / 77°f
Humidity: 100.0%

METAR: VIAR 192030Z 00000KT 4000 BR FEW040 25/25 Q1004 NOSIG

(Powered by phpweather)
Airport Radio Frequencies
Tower: 119.7, 124.35
Approach: 119.7
Nearby VORs <50NM
Nearby NDBs
Runway 16 / 34
Dimensions:3299.1 x 45.1m 10824' x 148'ft
Surface:Asphalt
Edge Lights:High intensity
Runway 16 [A]Runway 34 [B]
Heading:157°TH 337°TH
Lat:
Lng:
31° 43' 23.87"N
74° 47' 26.31"E
31° 41' 45.2"N
74° 48' 13.98"E
ALS:SALS
User Notes and Comments
31° 42' 34.53" N / 74° 47' 50.15" E
Distance To
Airport ID:
Nearby Airports
(C) ALLAMA IQBAL INTL 26.6 NM
OPLA ( WX ) WSW 240°
(C) WALTON 30.4 NM
OPLH ( WX ) WSW 240°
(U) JALLOWAL 33.6 NM
VI88 ESE 107°
(U) RAHWALI 53.4 NM
OP27 NW 312°
(U) ADAMPUR 59.7 NM
VIAX ESE 108°
(C) PATHANKOT 61.0 NM
VIPK NE 53°
(C) Sialkot International Airport 62.5 NM
OPST NNW 336°
VFR Chart
Flight Planning at SkyVector.com